createdAt,value
2019-03-25T00:01:52.084Z,6.26
2019-03-25T00:04:23.457Z,6.27
2019-03-25T00:06:54.789Z,6.19
2019-03-25T00:09:27.080Z,6.14
2019-03-25T00:11:58.766Z,6.15
2019-03-25T00:14:30.068Z,6.09
2019-03-25T00:17:01.643Z,6.01
2019-03-25T00:19:33.264Z,5.98
2019-03-25T00:22:04.858Z,5.94
2019-03-25T00:24:38.930Z,5.92
2019-03-25T00:27:09.736Z,5.92
2019-03-25T00:29:41.006Z,5.88
2019-03-25T00:32:12.318Z,5.89
2019-03-25T00:34:43.909Z,5.83
2019-03-25T00:37:15.882Z,6.07
2019-03-25T00:39:47.058Z,5.90
2019-03-25T00:42:18.390Z,6.00
2019-03-25T00:44:49.686Z,5.95
2019-03-25T00:47:21.106Z,6.13
2019-03-25T00:49:52.787Z,6.19
2019-03-25T00:52:24.092Z,6.10
2019-03-25T00:54:55.394Z,6.15
2019-03-25T00:57:26.758Z,6.21
2019-03-25T00:59:58.053Z,6.23
2019-03-25T01:02:29.326Z,6.17
2019-03-25T01:05:00.660Z,6.21
2019-03-25T01:07:32.155Z,6.19
2019-03-25T01:10:03.447Z,6.19
2019-03-25T01:12:34.783Z,6.21
2019-03-25T01:17:46.322Z,6.25
2019-03-25T01:20:17.627Z,6.21
2019-03-25T01:22:49.353Z,6.16
2019-03-25T01:25:21.665Z,6.12
2019-03-25T01:27:53.396Z,6.07
2019-03-25T01:30:25.720Z,6.02
2019-03-25T01:32:57.247Z,5.95
2019-03-25T01:35:28.538Z,5.96
2019-03-25T01:38:00.262Z,6.06
2019-03-25T01:40:34.462Z,6.17
2019-03-25T01:43:06.484Z,6.19
2019-03-25T01:45:38.025Z,6.21
2019-03-25T01:48:09.363Z,6.22
2019-03-25T01:50:40.757Z,6.25
2019-03-25T01:53:12.584Z,6.45
2019-03-25T01:55:44.541Z,6.39
2019-03-25T01:58:16.712Z,6.54
2019-03-25T02:00:47.975Z,6.49
2019-03-25T02:03:19.739Z,6.56
2019-03-25T02:05:51.023Z,6.60
2019-03-25T02:08:22.232Z,6.65
2019-03-25T02:10:53.860Z,6.61
2019-03-25T02:13:25.180Z,6.60
2019-03-25T02:15:56.455Z,6.58
2019-03-25T02:18:28.064Z,6.57
2019-03-25T02:20:59.364Z,6.60
2019-03-25T02:23:30.929Z,6.60
2019-03-25T02:26:02.541Z,6.68
2019-03-25T02:28:33.814Z,6.68
2019-03-25T02:31:05.409Z,6.73
2019-03-25T02:33:36.718Z,6.73
2019-03-25T02:36:08.300Z,6.83
2019-03-25T02:38:39.579Z,6.97
2019-03-25T02:41:10.890Z,6.91
2019-03-25T02:43:42.418Z,6.95
2019-03-25T02:46:14.067Z,6.99
2019-03-25T02:48:45.346Z,6.97
2019-03-25T02:51:17.505Z,7.06
2019-03-25T02:53:48.706Z,7.13
2019-03-25T02:56:20.303Z,7.14
2019-03-25T02:58:52.154Z,7.20
2019-03-25T03:01:23.439Z,7.27
2019-03-25T03:03:55.061Z,7.30
2019-03-25T03:06:26.374Z,7.31
2019-03-25T03:08:57.638Z,7.34
2019-03-25T03:11:28.978Z,7.35
2019-03-25T03:14:00.280Z,7.30
2019-03-25T03:16:31.540Z,7.33
2019-03-25T03:19:03.182Z,7.43
2019-03-25T03:21:34.863Z,7.33
2019-03-25T03:24:06.171Z,7.32
2019-03-25T03:26:37.492Z,7.32
2019-03-25T03:29:08.939Z,7.31
2019-03-25T03:31:40.281Z,7.37
2019-03-25T03:34:11.638Z,7.29
2019-03-25T03:36:43.152Z,7.26
2019-03-25T03:39:14.404Z,7.28
2019-03-25T03:41:46.770Z,7.25
2019-03-25T03:44:18.047Z,7.26
2019-03-25T03:46:49.352Z,7.32
2019-03-25T03:49:20.941Z,7.33
2019-03-25T03:51:53.932Z,7.40
2019-03-25T03:54:25.618Z,7.46
2019-03-25T03:56:58.055Z,7.45
2019-03-25T03:59:29.742Z,7.45
2019-03-25T04:02:01.303Z,7.47
2019-03-25T04:04:32.955Z,7.48
2019-03-25T04:07:04.383Z,7.45
2019-03-25T04:09:36.447Z,7.48
2019-03-25T04:12:07.850Z,7.54
2019-03-25T04:14:39.451Z,7.54
2019-03-25T04:17:11.042Z,7.56
2019-03-25T04:19:42.374Z,7.57
2019-03-25T04:22:13.660Z,7.56
2019-03-25T04:24:45.221Z,7.47
2019-03-25T04:27:17.101Z,7.45
2019-03-25T04:29:48.394Z,7.44
2019-03-25T04:32:19.931Z,7.35
2019-03-25T04:34:51.075Z,7.32
2019-03-25T04:37:23.406Z,7.22
2019-03-25T04:39:55.432Z,7.19
2019-03-25T04:42:27.075Z,7.12
2019-03-25T04:44:58.370Z,7.15
2019-03-25T04:47:29.910Z,7.13
2019-03-25T04:50:01.592Z,7.15
2019-03-25T04:52:33.211Z,7.17
2019-03-25T04:55:04.825Z,7.11
2019-03-25T04:57:36.165Z,7.10
2019-03-25T05:00:08.737Z,7.03
2019-03-25T05:02:40.015Z,6.99
2019-03-25T05:05:12.234Z,6.89
2019-03-25T05:07:43.851Z,6.86
2019-03-25T05:10:15.187Z,6.80
2019-03-25T05:12:46.620Z,6.76
2019-03-25T05:15:20.416Z,6.70
2019-03-25T05:17:51.757Z,6.70
2019-03-25T05:20:23.078Z,6.65
2019-03-25T05:22:54.387Z,6.62
2019-03-25T05:25:25.644Z,6.61
2019-03-25T05:27:57.202Z,6.61
2019-03-25T05:30:28.406Z,6.60
2019-03-25T05:32:59.918Z,6.47
2019-03-25T05:35:31.174Z,6.46
2019-03-25T05:38:02.482Z,6.42
2019-03-25T05:40:34.338Z,6.38
2019-03-25T05:43:06.050Z,6.33
2019-03-25T05:45:37.639Z,6.29
2019-03-25T05:48:09.022Z,6.38
2019-03-25T05:50:40.395Z,6.31
2019-03-25T05:53:11.930Z,6.39
2019-03-25T05:55:43.262Z,6.36
2019-03-25T05:58:14.642Z,6.42
2019-03-25T06:00:46.144Z,6.44
2019-03-25T06:03:17.807Z,6.46
2019-03-25T06:05:49.209Z,6.48
2019-03-25T06:08:20.841Z,6.52
2019-03-25T06:10:52.167Z,6.53
2019-03-25T06:13:23.611Z,6.56
2019-03-25T06:15:54.924Z,6.65
2019-03-25T06:18:26.537Z,6.86
2019-03-25T06:20:57.930Z,6.99
2019-03-25T06:23:29.332Z,7.05
2019-03-25T06:26:00.922Z,7.19
2019-03-25T06:28:32.438Z,7.18
2019-03-25T06:31:03.976Z,7.08
2019-03-25T06:33:36.061Z,7.06
2019-03-25T06:36:07.440Z,7.12
2019-03-25T06:38:39.273Z,7.09
2019-03-25T06:41:13.590Z,7.09
2019-03-25T06:43:45.253Z,7.08
2019-03-25T06:46:16.883Z,7.02
2019-03-25T06:48:48.239Z,7.03
2019-03-25T06:51:19.660Z,7.47
2019-03-25T06:53:51.254Z,7.85
2019-03-25T06:56:22.616Z,8.21
2019-03-25T06:58:54.011Z,8.61
2019-03-25T07:01:25.821Z,8.80
2019-03-25T07:03:57.098Z,8.71
2019-03-25T07:06:28.423Z,8.46
2019-03-25T07:09:00.034Z,8.38
2019-03-25T07:11:31.460Z,8.35
2019-03-25T07:14:03.155Z,8.25
2019-03-25T07:16:34.577Z,8.09
2019-03-25T07:19:05.929Z,8.01
2019-03-25T07:21:37.674Z,8.07
2019-03-25T07:24:08.948Z,8.24
2019-03-25T07:26:40.485Z,8.56
2019-03-25T07:29:11.796Z,8.56
2019-03-25T07:31:43.108Z,8.48
2019-03-25T07:34:14.505Z,8.35
2019-03-25T07:36:45.828Z,8.12
2019-03-25T07:39:17.326Z,8.00
2019-03-25T07:41:50.298Z,7.84
2019-03-25T07:44:21.598Z,7.84
2019-03-25T07:46:53.034Z,8.00
2019-03-25T07:49:24.291Z,8.14
2019-03-25T07:51:55.628Z,8.22
2019-03-25T07:54:26.801Z,9.09
2019-03-25T07:56:58.047Z,9.79
2019-03-25T07:59:29.384Z,10.29
2019-03-25T08:02:00.888Z,10.64
2019-03-25T08:04:32.132Z,10.54
2019-03-25T08:07:03.880Z,10.82
2019-03-25T08:09:36.534Z,11.18
2019-03-25T08:12:08.175Z,11.77
2019-03-25T08:14:39.787Z,11.77
2019-03-25T08:17:11.419Z,11.23
2019-03-25T08:19:42.686Z,11.68
2019-03-25T08:22:13.967Z,11.74
2019-03-25T08:24:45.279Z,11.62
2019-03-25T08:27:16.831Z,11.06
2019-03-25T08:29:48.094Z,10.63
2019-03-25T08:32:19.854Z,10.09
2019-03-25T08:34:51.435Z,9.93
2019-03-25T08:37:22.726Z,9.56
2019-03-25T08:39:54.247Z,9.28
2019-03-25T08:42:25.589Z,9.35
2019-03-25T08:44:56.897Z,9.32
2019-03-25T08:47:28.186Z,9.35
2019-03-25T08:49:59.721Z,9.45
2019-03-25T08:52:30.929Z,9.23
2019-03-25T08:55:02.210Z,9.01
2019-03-25T08:57:33.482Z,8.94
2019-03-25T09:00:05.189Z,8.98
2019-03-25T09:02:37.949Z,9.43
2019-03-25T09:05:10.075Z,10.51
2019-03-25T09:07:41.529Z,10.83
2019-03-25T09:10:13.259Z,10.79
2019-03-25T09:12:44.510Z,10.98
2019-03-25T09:15:16.253Z,11.47
2019-03-25T09:17:47.543Z,11.12
2019-03-25T09:20:19.248Z,11.20
2019-03-25T09:22:51.161Z,11.24
2019-03-25T09:25:22.932Z,12.23
2019-03-25T09:27:54.528Z,11.97
2019-03-25T09:31:19.694Z,11.54
2019-03-25T09:33:51.585Z,11.61
2019-03-25T09:36:26.036Z,11.43
2019-03-25T09:38:57.880Z,11.22
2019-03-25T09:41:29.414Z,11.04
2019-03-25T09:44:00.683Z,11.36
2019-03-25T09:46:33.258Z,11.85
2019-03-25T09:49:05.093Z,11.74
2019-03-25T09:51:37.454Z,10.97
2019-03-25T09:54:08.744Z,11.03
2019-03-25T09:56:40.017Z,11.01
2019-03-25T09:59:11.278Z,11.18
2019-03-25T10:01:42.846Z,11.73
2019-03-25T10:04:14.384Z,12.61
2019-03-25T10:06:45.655Z,13.09
2019-03-25T10:09:17.212Z,13.58
2019-03-25T10:11:48.503Z,14.50
2019-03-25T10:14:19.763Z,14.56
2019-03-25T10:16:51.087Z,14.15
2019-03-25T10:19:23.701Z,12.94
2019-03-25T10:21:54.953Z,11.97
2019-03-25T10:24:28.103Z,10.97
2019-03-25T10:26:59.700Z,10.17
2019-03-25T10:29:31.208Z,9.61
2019-03-25T10:32:02.857Z,9.85
2019-03-25T10:34:34.139Z,10.13
2019-03-25T10:37:05.521Z,10.78
2019-03-25T10:39:36.845Z,11.19
2019-03-25T10:42:08.458Z,11.99
2019-03-25T10:44:39.729Z,12.40
2019-03-25T10:47:11.131Z,13.36
2019-03-25T10:49:42.422Z,13.75
2019-03-25T10:52:13.682Z,14.33
2019-03-25T10:54:45.395Z,14.57
2019-03-25T10:57:16.714Z,14.06
2019-03-25T10:59:47.972Z,13.87
2019-03-25T11:02:19.842Z,13.50
2019-03-25T11:04:51.108Z,14.38
2019-03-25T11:07:22.524Z,13.65
2019-03-25T11:09:54.360Z,13.67
2019-03-25T11:12:25.644Z,13.91
2019-03-25T11:15:00.292Z,14.49
2019-03-25T11:17:31.759Z,14.43
2019-03-25T11:20:04.035Z,14.17
2019-03-25T11:22:35.854Z,14.14
2019-03-25T11:25:07.744Z,13.46
2019-03-25T11:27:39.337Z,12.47
2019-03-25T11:30:11.743Z,11.13
2019-03-25T11:32:43.177Z,10.06
2019-03-25T11:35:15.676Z,9.40
2019-03-25T11:37:46.966Z,8.98
2019-03-25T11:40:18.876Z,9.95
2019-03-25T11:42:50.135Z,10.52
2019-03-25T11:45:24.835Z,11.04
2019-03-25T11:47:56.168Z,11.81
2019-03-25T11:50:27.432Z,12.29
2019-03-25T11:52:58.974Z,12.70
2019-03-25T11:55:30.285Z,13.51
2019-03-25T11:58:01.566Z,13.42
2019-03-25T12:00:32.939Z,13.28
2019-03-25T12:03:04.656Z,12.88
2019-03-25T12:05:35.946Z,12.15
2019-03-25T12:08:07.229Z,12.08
2019-03-25T12:10:38.648Z,11.64
2019-03-25T12:13:09.992Z,11.39
2019-03-25T12:15:41.266Z,10.88
2019-03-25T12:18:12.580Z,10.92
2019-03-25T12:20:45.864Z,11.11
2019-03-25T12:23:25.949Z,11.26
2019-03-25T12:25:50.223Z,11.43
2019-03-25T12:28:21.495Z,11.24
2019-03-25T12:30:53.192Z,11.38
2019-03-25T12:33:24.524Z,11.44
2019-03-25T12:35:55.810Z,11.43
2019-03-25T12:38:27.659Z,11.08
2019-03-25T12:40:59.528Z,10.90
2019-03-25T12:43:30.809Z,11.16
2019-03-25T12:46:02.177Z,11.91
2019-03-25T12:48:33.565Z,12.45
2019-03-25T12:51:04.824Z,12.70
2019-03-25T12:53:36.101Z,13.12
2019-03-25T12:56:07.465Z,12.97
2019-03-25T12:58:39.000Z,13.46
2019-03-25T13:01:10.535Z,13.41
2019-03-25T13:03:41.876Z,13.64
2019-03-25T13:06:13.098Z,13.76
2019-03-25T13:08:44.365Z,14.21
2019-03-25T13:11:15.951Z,14.44
2019-03-25T13:13:47.224Z,14.40
2019-03-25T13:16:18.592Z,14.13
2019-03-25T13:18:49.954Z,13.84
2019-03-25T13:21:21.220Z,13.38
2019-03-25T13:23:52.475Z,13.23
2019-03-25T13:26:24.070Z,13.08
2019-03-25T13:29:01.794Z,13.38
2019-03-25T13:31:29.792Z,13.08
2019-03-25T13:34:01.347Z,12.61
2019-03-25T13:36:33.003Z,12.69
2019-03-25T13:39:05.796Z,12.54
2019-03-25T13:41:37.182Z,11.99
2019-03-25T13:44:08.569Z,12.05
2019-03-25T13:46:39.894Z,11.66
2019-03-25T13:49:11.148Z,11.22
2019-03-25T13:51:42.492Z,10.96
2019-03-25T13:54:13.841Z,10.49
2019-03-25T13:56:45.258Z,10.31
2019-03-25T13:59:16.604Z,10.29
2019-03-25T14:01:47.924Z,10.03
2019-03-25T14:04:19.264Z,9.76
2019-03-25T14:06:50.649Z,9.44
2019-03-25T14:09:21.858Z,9.22
2019-03-25T14:11:54.248Z,9.16
2019-03-25T14:14:25.996Z,9.09
2019-03-25T14:16:57.640Z,9.09
2019-03-25T14:19:29.430Z,9.19
2019-03-25T14:22:00.848Z,9.13
2019-03-25T14:24:32.159Z,9.11
2019-03-25T14:27:03.543Z,8.84
2019-03-25T14:29:34.898Z,8.80
2019-03-25T14:32:07.317Z,8.47
2019-03-25T14:34:44.592Z,8.27
2019-03-25T14:37:13.153Z,8.15
2019-03-25T14:39:45.004Z,8.18
2019-03-25T14:42:16.343Z,8.18
2019-03-25T14:44:47.621Z,8.20
2019-03-25T14:47:19.149Z,8.26
2019-03-25T14:49:50.502Z,8.52
2019-03-25T14:52:21.871Z,8.85
2019-03-25T14:54:53.176Z,9.08
2019-03-25T14:57:24.599Z,9.33
2019-03-25T14:59:56.068Z,9.56
2019-03-25T15:02:27.646Z,9.95
2019-03-25T15:04:59.571Z,9.76
2019-03-25T15:07:31.214Z,9.65
2019-03-25T15:10:02.522Z,9.55
2019-03-25T15:12:35.090Z,9.51
2019-03-25T15:15:07.473Z,9.54
2019-03-25T15:17:39.095Z,9.57
2019-03-25T15:20:11.176Z,9.69
2019-03-25T15:22:42.841Z,9.76
2019-03-25T15:25:16.455Z,9.88
2019-03-25T15:27:48.110Z,10.07
2019-03-25T15:30:21.012Z,10.17
2019-03-25T15:32:52.653Z,10.28
2019-03-25T15:35:24.047Z,10.34
2019-03-25T15:37:55.643Z,10.20
2019-03-25T15:40:27.414Z,10.26
2019-03-25T15:42:58.965Z,10.21
2019-03-25T15:45:30.587Z,10.03
2019-03-25T15:48:02.063Z,10.03
2019-03-25T15:50:33.951Z,9.96
2019-03-25T15:53:05.787Z,9.97
2019-03-25T15:55:37.576Z,10.05
2019-03-25T15:58:09.630Z,9.96
2019-03-25T16:00:47.480Z,9.91
2019-03-25T16:03:14.322Z,9.96
2019-03-25T16:05:46.461Z,9.81
2019-03-25T16:08:17.768Z,9.77
2019-03-25T16:10:51.570Z,9.82
2019-03-25T16:13:22.391Z,9.70
2019-03-25T16:15:53.781Z,9.67
2019-03-25T16:18:39.442Z,9.53
2019-03-25T16:21:11.335Z,9.45
2019-03-25T16:23:42.750Z,9.46
2019-03-25T16:26:14.241Z,9.48
2019-03-25T16:28:45.842Z,9.46
2019-03-25T16:31:17.240Z,9.39
2019-03-25T16:33:48.620Z,9.32
2019-03-25T16:36:20.961Z,9.33
2019-03-25T16:38:52.272Z,9.28
2019-03-25T16:41:23.720Z,9.34
2019-03-25T16:43:55.036Z,9.45
2019-03-25T16:46:26.419Z,9.44
2019-03-25T16:48:58.101Z,9.48
2019-03-25T16:51:29.438Z,9.49
2019-03-25T16:54:00.826Z,9.47
2019-03-25T16:56:33.024Z,9.46
2019-03-25T16:59:04.285Z,9.46
2019-03-25T17:01:35.582Z,9.43
2019-03-25T17:04:06.963Z,9.40
2019-03-25T17:06:38.479Z,9.41
2019-03-25T17:09:10.061Z,9.27
2019-03-25T17:11:41.434Z,9.21
2019-03-25T17:14:13.187Z,9.22
2019-03-25T17:16:44.556Z,9.24
2019-03-25T17:19:16.447Z,9.22
2019-03-25T17:21:57.628Z,9.21
2019-03-25T17:24:21.141Z,9.19
2019-03-25T17:26:52.475Z,9.14
2019-03-25T17:29:23.769Z,9.18
2019-03-25T17:31:55.092Z,9.16
2019-03-25T17:34:27.065Z,9.11
2019-03-25T17:36:58.409Z,9.12
2019-03-25T17:39:31.097Z,9.07
2019-03-25T17:42:03.059Z,9.06
2019-03-25T17:44:34.465Z,9.03
2019-03-25T17:47:06.620Z,9.02
2019-03-25T17:49:38.029Z,8.98
2019-03-25T17:52:09.365Z,8.96
2019-03-25T17:54:40.693Z,8.88
2019-03-25T17:57:12.107Z,8.89
2019-03-25T17:59:43.521Z,8.97
2019-03-25T18:02:19.451Z,8.96
2019-03-25T18:04:51.039Z,8.85
2019-03-25T18:07:22.657Z,8.93
2019-03-25T18:09:54.034Z,8.90
2019-03-25T18:12:25.891Z,8.88
2019-03-25T18:14:57.182Z,8.87
2019-03-25T18:17:28.490Z,8.83
2019-03-25T18:20:00.219Z,8.78
2019-03-25T18:22:39.495Z,8.80
2019-03-25T18:25:04.938Z,8.80
2019-03-25T18:27:36.458Z,8.78
2019-03-25T18:30:09.595Z,8.78
2019-03-25T18:32:43.745Z,8.80
2019-03-25T18:35:24.153Z,8.78
2019-03-25T18:37:55.454Z,8.75
2019-03-25T18:40:26.809Z,8.69
2019-03-25T18:42:58.456Z,8.74
2019-03-25T18:45:29.860Z,8.62
2019-03-25T18:48:01.744Z,8.74
2019-03-25T18:50:33.637Z,8.73
2019-03-25T18:53:06.292Z,8.70
2019-03-25T18:55:37.899Z,8.67
2019-03-25T18:58:09.843Z,8.66
2019-03-25T19:00:41.539Z,8.66
2019-03-25T19:03:13.127Z,8.60
2019-03-25T19:05:45.358Z,8.61
2019-03-25T19:08:17.187Z,8.62
2019-03-25T19:10:48.581Z,8.60
2019-03-25T19:13:20.324Z,8.54
2019-03-25T19:15:51.945Z,8.58
2019-03-25T19:18:23.249Z,8.58
2019-03-25T19:20:54.623Z,8.56
2019-03-25T19:23:26.404Z,8.53
2019-03-25T19:25:58.662Z,8.50
2019-03-25T19:28:30.105Z,8.53
2019-03-25T19:31:01.719Z,8.53
2019-03-25T19:33:33.258Z,8.59
2019-03-25T19:36:04.637Z,8.50
2019-03-25T19:38:35.952Z,8.51
2019-03-25T19:41:07.876Z,8.48
2019-03-25T19:43:39.697Z,8.49
2019-03-25T19:46:11.319Z,8.49
2019-03-25T19:48:42.704Z,8.42
2019-03-25T19:51:14.140Z,8.35
2019-03-25T19:53:45.816Z,8.44
2019-03-25T19:56:17.139Z,8.36
2019-03-25T19:58:48.564Z,8.33
2019-03-25T20:01:20.275Z,8.34
2019-03-25T20:03:51.736Z,8.33
2019-03-25T20:06:26.435Z,8.36
2019-03-25T20:08:56.329Z,8.33
2019-03-25T20:11:27.680Z,8.30
2019-03-25T20:13:59.951Z,8.27
2019-03-25T20:16:31.378Z,8.31
2019-03-25T20:19:03.572Z,8.25
2019-03-25T20:21:39.405Z,8.19
2019-03-25T20:24:11.790Z,8.23
2019-03-25T20:26:45.098Z,8.23
2019-03-25T20:29:16.847Z,8.16
2019-03-25T20:31:48.390Z,8.13
2019-03-25T20:34:20.620Z,8.09
2019-03-25T20:36:52.251Z,8.15
2019-03-25T20:39:24.105Z,8.06
2019-03-25T20:41:56.447Z,8.02
2019-03-25T20:44:28.418Z,8.03
2019-03-25T20:47:00.627Z,8.05
2019-03-25T20:49:32.156Z,8.06
2019-03-25T20:52:03.996Z,8.10
2019-03-25T20:54:36.555Z,8.02
2019-03-25T20:57:08.391Z,8.03
2019-03-25T20:59:40.669Z,8.05
2019-03-25T21:02:12.476Z,8.02
2019-03-25T21:04:43.925Z,8.00
2019-03-25T21:07:16.879Z,8.01
2019-03-25T21:09:49.106Z,8.01
2019-03-25T21:12:20.672Z,8.04
2019-03-25T21:14:52.391Z,8.01
2019-03-25T21:17:23.918Z,7.99
2019-03-25T21:19:55.447Z,8.02
2019-03-25T21:22:27.091Z,7.97
2019-03-25T21:24:58.823Z,8.01
2019-03-25T21:27:30.203Z,7.93
2019-03-25T21:30:02.456Z,7.94
2019-03-25T21:32:33.799Z,8.02
2019-03-25T21:35:06.151Z,7.96
2019-03-25T21:37:37.629Z,8.01
2019-03-25T21:40:09.424Z,7.91
2019-03-25T21:42:40.767Z,7.94
2019-03-25T21:45:12.431Z,7.87
2019-03-25T21:47:44.176Z,7.86
2019-03-25T21:50:15.670Z,7.84
2019-03-25T21:52:47.011Z,7.83
2019-03-25T21:55:18.721Z,7.86
2019-03-25T21:57:50.097Z,7.85
2019-03-25T22:00:22.727Z,7.82
2019-03-25T22:02:54.445Z,7.82
2019-03-25T22:05:25.709Z,7.85
2019-03-25T22:07:57.155Z,7.87
2019-03-25T22:10:28.510Z,7.77
2019-03-25T22:12:59.919Z,7.82
2019-03-25T22:15:32.449Z,7.76
2019-03-25T22:18:04.640Z,7.76
2019-03-25T22:20:36.330Z,7.74
2019-03-25T22:23:07.726Z,7.74
2019-03-25T22:25:39.095Z,7.72
2019-03-25T22:28:10.744Z,7.72
2019-03-25T22:30:42.813Z,7.71
2019-03-25T22:33:25.180Z,7.68
2019-03-25T22:35:48.509Z,7.65
2019-03-25T22:38:19.831Z,7.70
2019-03-25T22:40:51.215Z,7.71
2019-03-25T22:43:22.495Z,7.65
2019-03-25T22:45:53.886Z,7.62
2019-03-25T22:48:25.216Z,7.61
2019-03-25T22:50:57.014Z,7.61
2019-03-25T22:53:28.370Z,7.74
2019-03-25T22:55:59.717Z,7.65
2019-03-25T22:58:31.360Z,7.65
2019-03-25T23:01:05.319Z,7.60
2019-03-25T23:03:39.405Z,7.57
2019-03-25T23:06:09.598Z,7.56
2019-03-25T23:08:40.968Z,7.52
2019-03-25T23:11:13.474Z,7.58
2019-03-25T23:13:44.705Z,7.54
2019-03-25T23:16:16.052Z,7.49
2019-03-25T23:18:47.556Z,7.52
2019-03-25T23:21:18.831Z,7.57
2019-03-25T23:23:50.178Z,7.52
2019-03-25T23:26:21.496Z,7.50
2019-03-25T23:28:52.931Z,7.51
2019-03-25T23:31:24.268Z,7.55
2019-03-25T23:33:55.550Z,7.48
2019-03-25T23:36:26.854Z,7.50
2019-03-25T23:38:58.492Z,7.50
2019-03-25T23:41:29.805Z,7.50
2019-03-25T23:44:01.485Z,7.43
2019-03-25T23:46:32.809Z,7.47
2019-03-25T23:49:04.100Z,7.45
2019-03-25T23:51:35.414Z,7.46
2019-03-25T23:54:13.217Z,7.49
2019-03-25T23:56:44.989Z,7.49
2019-03-25T23:59:16.277Z,7.49
